Time;durP1;ratioP1;P1;durP2;ratioP2;P2;SDS_P1;SDS_P2;PMS_P1;PMS_P2;Temp;Humidity;BMP_temperature;BMP_pressure;BME280_temperature;BME280_humidity;BME280_pressure;Samples;Min_cycle;Max_cycle;Signal;HPM_P1;HPM_P2
2022/12/26 00:02:02;;;;;;;13.00;8.73;;;10.00;99.90;;;;;;5014578;28;20439;-55
2022/12/26 00:04:30;;;;;;;10.63;8.40;;;9.70;99.90;;;;;;5014279;28;20396;-53
2022/12/26 00:06:57;;;;;;;12.00;8.90;;;9.90;99.90;;;;;;5014196;28;20442;-53
2022/12/26 00:09:24;;;;;;;14.33;8.40;;;10.00;99.90;;;;;;5013337;28;20415;-54
2022/12/26 00:11:51;;;;;;;10.43;8.50;;;9.50;99.90;;;;;;5013810;28;20484;-53
2022/12/26 00:14:17;;;;;;;11.77;7.80;;;10.00;99.90;;;;;;5013669;28;20961;-53
2022/12/26 00:16:45;;;;;;;12.80;8.50;;;10.20;99.90;;;;;;5013785;28;20464;-53
2022/12/26 00:19:14;;;;;;;9.50;7.70;;;9.70;99.90;;;;;;5012971;28;20451;-53
2022/12/26 00:21:41;;;;;;;13.33;7.27;;;9.90;99.90;;;;;;5013512;28;20456;-53
2022/12/26 00:24:10;;;;;;;10.50;7.83;;;9.50;99.90;;;;;;5012735;28;20453;-54
2022/12/26 00:26:37;;;;;;;8.60;7.07;;;9.60;99.90;;;;;;5013541;28;20433;-54
2022/12/26 00:29:04;;;;;;;7.23;6.50;;;10.00;99.90;;;;;;5012796;28;20508;-53
2022/12/26 00:31:33;;;;;;;9.77;7.30;;;10.20;99.90;;;;;;5013270;28;20508;-54
2022/12/26 00:34:00;;;;;;;11.57;8.20;;;10.10;99.90;;;;;;5013364;28;20897;-54
2022/12/26 00:36:29;;;;;;;9.37;7.13;;;10.20;99.90;;;;;;5013602;28;20433;-53
2022/12/26 00:38:57;;;;;;;8.87;7.00;;;10.10;99.90;;;;;;5012605;28;20696;-54
2022/12/26 00:41:23;;;;;;;10.60;7.47;;;10.00;99.90;;;;;;5013057;28;20452;-54
2022/12/26 00:43:50;;;;;;;11.20;7.30;;;10.20;99.90;;;;;;5013207;28;20769;-53
2022/12/26 00:46:18;;;;;;;11.40;7.43;;;9.60;99.90;;;;;;5013166;28;20441;-54
2022/12/26 00:48:45;;;;;;;8.70;6.53;;;10.10;99.90;;;;;;5012380;28;20465;-53
2022/12/26 00:51:11;;;;;;;8.90;6.80;;;10.30;99.90;;;;;;5012871;28;20431;-53
2022/12/26 00:53:40;;;;;;;10.17;7.83;;;10.40;99.90;;;;;;5012978;28;20810;-54
2022/12/26 00:56:07;;;;;;;8.13;6.70;;;9.70;99.90;;;;;;5012972;28;20779;-54
2022/12/26 00:58:33;;;;;;;7.60;6.90;;;10.30;99.90;;;;;;5012114;28;20444;-52
2022/12/26 01:01:07;;;;;;;8.50;7.07;;;10.00;99.90;;;;;;5012722;28;20438;-53
2022/12/26 01:03:33;;;;;;;7.30;6.50;;;10.40;99.90;;;;;;5013006;28;20439;-54
2022/12/26 01:06:02;;;;;;;8.40;6.37;;;10.40;99.90;;;;;;5012910;28;20449;-54
2022/12/26 01:08:29;;;;;;;11.20;7.10;;;10.00;99.90;;;;;;5012031;28;20432;-54
2022/12/26 01:10:57;;;;;;;7.60;5.93;;;10.40;99.90;;;;;;5012632;28;20442;-54
2022/12/26 01:13:23;;;;;;;6.70;6.10;;;10.50;99.90;;;;;;5012608;28;20556;-54
2022/12/26 01:15:51;;;;;;;7.77;6.80;;;10.40;99.90;;;;;;5012524;28;20418;-54
2022/12/26 01:18:18;;;;;;;7.83;6.60;;;10.20;99.90;;;;;;5013011;28;20437;-55
2022/12/26 01:20:44;;;;;;;10.07;6.03;;;10.30;99.90;;;;;;5011812;28;20444;-54
2022/12/26 01:23:11;;;;;;;9.23;7.10;;;10.20;99.90;;;;;;4994833;28;20472;-53
2022/12/26 01:25:39;;;;;;;7.77;6.23;;;10.50;99.90;;;;;;5012586;28;20440;-54
2022/12/26 01:28:07;;;;;;;8.50;6.00;;;10.20;99.90;;;;;;5012658;28;20449;-54
2022/12/26 01:30:33;;;;;;;7.43;5.70;;;10.20;99.90;;;;;;5011927;28;20445;-54
2022/12/26 01:33:00;;;;;;;7.20;5.73;;;10.40;99.90;;;;;;5012513;28;20466;-54
2022/12/26 01:35:27;;;;;;;8.17;5.77;;;10.30;99.90;;;;;;5012262;28;20811;-55
2022/12/26 01:37:54;;;;;;;7.30;6.13;;;10.40;99.90;;;;;;5012689;28;20953;-54
2022/12/26 01:40:21;;;;;;;8.73;6.30;;;10.40;99.90;;;;;;5011655;28;20440;-53
2022/12/26 01:42:48;;;;;;;6.50;5.90;;;9.90;99.90;;;;;;5012292;28;20466;-54
2022/12/26 01:45:26;;;;;;;10.57;6.23;;;10.30;99.90;;;;;;5012672;28;20416;-55
2022/12/26 01:47:59;;;;;;;7.77;6.57;;;10.40;99.90;;;;;;5012252;28;20427;-55
2022/12/26 01:50:41;;;;;;;7.57;6.37;;;10.50;99.90;;;;;;5011470;28;20440;-55
2022/12/26 01:53:13;;;;;;;6.70;5.43;;;10.10;99.90;;;;;;5011818;28;20999;-55
2022/12/26 01:55:41;;;;;;;7.90;5.70;;;10.60;99.90;;;;;;5012062;28;20922;-54
2022/12/26 01:58:12;;;;;;;7.53;5.37;;;10.40;99.90;;;;;;5011975;28;20438;-53
2022/12/26 02:00:41;;;;;;;8.37;6.03;;;10.50;99.90;;;;;;5010845;28;20450;-54
2022/12/26 02:05:57;;;;;;;9.27;6.90;;;10.20;99.90;;;;;;5011845;28;20426;-55
2022/12/26 02:08:26;;;;;;;9.40;6.20;;;10.30;99.90;;;;;;5011495;28;20413;-55
2022/12/26 02:10:59;;;;;;;6.70;6.00;;;10.30;99.90;;;;;;5011640;28;20506;-54
2022/12/26 02:13:27;;;;;;;7.33;5.80;;;10.10;99.90;;;;;;5011791;28;20455;-55
2022/12/26 02:15:56;;;;;;;7.13;6.10;;;9.60;99.90;;;;;;5011856;28;20438;-54
2022/12/26 02:18:23;;;;;;;5.80;5.30;;;10.30;99.90;;;;;;5011330;28;20433;-54
2022/12/26 02:20:58;;;;;;;6.67;5.40;;;10.30;99.90;;;;;;5011376;28;20414;-54
2022/12/26 02:23:50;;;;;;;6.60;6.00;;;10.00;99.90;;;;;;5011624;28;20441;-54
2022/12/26 02:26:43;;;;;;;7.60;6.00;;;10.30;99.90;;;;;;4994053;28;20826;-54
2022/12/26 02:29:31;;;;;;;6.17;5.60;;;10.60;99.90;;;;;;5010935;28;20941;-54
2022/12/26 02:32:08;;;;;;;8.80;6.57;;;10.30;99.90;;;;;;5011471;28;20475;-54
2022/12/26 02:34:48;;;;;;;9.23;6.13;;;10.50;99.90;;;;;;5011559;28;20514;-54
2022/12/26 02:37:28;;;;;;;7.27;5.63;;;10.30;99.90;;;;;;5011610;28;20436;-54
2022/12/26 02:40:11;;;;;;;6.80;5.60;;;10.60;99.90;;;;;;5010906;28;20916;-54
2022/12/26 02:42:49;;;;;;;12.07;6.33;;;10.60;99.90;;;;;;5011629;28;20519;-53
2022/12/26 02:48:13;;;;;;;6.80;5.50;;;10.50;99.90;;;;;;4991158;28;20431;-54
2022/12/26 03:13:35;;;;;;;6.87;5.80;;;10.50;99.90;;;;;;5014949;28;21288;-53
2022/12/26 03:18:55;;;;;;;6.60;6.00;;;10.70;99.90;;;;;;5014178;28;20520;-52
2022/12/26 03:21:25;;;;;;;9.13;6.10;;;10.00;99.90;;;;;;5014802;28;20453;-54
2022/12/26 03:23:56;;;;;;;6.27;5.70;;;10.50;99.90;;;;;;5014728;28;20433;-54
2022/12/26 03:26:39;;;;;;;6.83;6.13;;;10.80;99.90;;;;;;5014696;28;20441;-54
2022/12/26 03:31:51;;;;;;;6.53;5.93;;;10.40;99.90;;;;;;5014469;28;20464;-53
2022/12/26 03:34:18;;;;;;;7.50;5.87;;;10.70;99.90;;;;;;5014573;28;20437;-54
2022/12/26 03:37:15;;;;;;;6.63;5.83;;;11.00;99.90;;;;;;5014540;28;20432;-53
2022/12/26 04:19:44;;;;;;;7.23;5.50;;;10.70;99.90;;;;;;5013097;28;20491;-53
2022/12/26 04:44:48;;;;;;;6.47;5.60;;;10.80;99.90;;;;;;5013273;28;20452;-54
2022/12/26 04:47:15;;;;;;;6.97;5.30;;;11.00;99.90;;;;;;5013019;28;20522;-54
2022/12/26 04:52:53;;;;;;;6.87;5.20;;;10.50;99.90;;;;;;5013089;28;20479;-53
2022/12/26 04:55:14;;;;;;;5.47;4.97;;;10.70;99.90;;;;;;5012959;28;20452;-54
2022/12/26 04:57:42;;;;;;;6.30;5.63;;;10.90;99.90;;;;;;5012964;28;20815;-54
2022/12/26 05:00:11;;;;;;;6.30;5.07;;;10.90;99.90;;;;;;5012222;28;20941;-53
2022/12/26 05:11:03;;;;;;;5.43;4.93;;;11.00;99.90;;;;;;5012535;28;20870;-53
2022/12/26 05:13:29;;;;;;;5.90;4.97;;;11.10;99.90;;;;;;5012795;28;20486;-54
2022/12/26 05:29:39;;;;;;;6.40;5.40;;;11.20;99.90;;;;;;5011617;28;20418;-52
2022/12/26 05:32:07;;;;;;;6.23;5.30;;;10.70;99.90;;;;;;5012246;28;20451;-54
2022/12/26 05:34:33;;;;;;;10.40;4.90;;;11.10;99.90;;;;;;5012355;28;20435;-53
2022/12/26 05:37:00;;;;;;;5.57;4.90;;;11.10;99.90;;;;;;5012254;28;20725;-54
2022/12/26 05:39:27;;;;;;;6.13;5.20;;;10.80;99.90;;;;;;5011478;28;20542;-52
2022/12/26 05:41:53;;;;;;;7.33;4.43;;;11.00;99.90;;;;;;5012258;28;20469;-53
2022/12/26 05:44:20;;;;;;;6.30;5.13;;;11.10;99.90;;;;;;5012174;28;20441;-53
2022/12/26 05:46:48;;;;;;;6.63;5.60;;;11.00;99.90;;;;;;5012104;28;20458;-54
2022/12/26 05:49:16;;;;;;;5.33;4.83;;;11.10;99.90;;;;;;5011531;28;20406;-54
2022/12/26 05:51:43;;;;;;;5.57;5.07;;;10.90;99.90;;;;;;5011848;28;20829;-55
2022/12/26 05:54:10;;;;;;;8.37;5.57;;;11.10;99.90;;;;;;5012002;28;20507;-55
2022/12/26 05:56:36;;;;;;;6.27;5.47;;;11.30;99.90;;;;;;5012089;28;20474;-54
2022/12/26 05:59:03;;;;;;;6.63;5.10;;;11.30;99.90;;;;;;5011249;28;20452;-55
2022/12/26 06:01:30;;;;;;;5.60;4.90;;;11.20;99.90;;;;;;5012336;28;20481;-53
2022/12/26 06:03:58;;;;;;;6.10;5.27;;;11.20;99.90;;;;;;5011950;28;20439;-53
2022/12/26 06:06:27;;;;;;;6.80;5.13;;;11.40;99.90;;;;;;5011756;28;20430;-52
2022/12/26 06:08:55;;;;;;;6.30;5.10;;;11.10;99.90;;;;;;5011108;28;20416;-53
2022/12/26 06:11:24;;;;;;;6.70;4.70;;;11.10;99.90;;;;;;5011658;28;20452;-52
2022/12/26 06:13:51;;;;;;;6.73;5.40;;;11.20;99.90;;;;;;5011750;28;20478;-53
2022/12/26 06:16:18;;;;;;;6.83;5.07;;;11.30;99.90;;;;;;5011619;28;20442;-53
2022/12/26 06:18:45;;;;;;;5.67;5.07;;;11.30;99.90;;;;;;5010868;28;20474;-53
2022/12/26 06:21:16;;;;;;;7.60;5.40;;;11.30;99.90;;;;;;5011578;28;20921;-54
2022/12/26 06:23:44;;;;;;;5.43;4.70;;;11.30;99.90;;;;;;5011153;28;20454;-54
2022/12/26 06:26:11;;;;;;;5.27;4.67;;;11.40;99.90;;;;;;5011553;28;20939;-54
2022/12/26 06:28:39;;;;;;;7.67;5.10;;;11.10;99.90;;;;;;5010890;28;20505;-54
2022/12/26 06:31:07;;;;;;;5.30;4.80;;;11.10;99.90;;;;;;5011557;28;20556;-54
2022/12/26 06:33:34;;;;;;;5.53;4.47;;;11.00;99.90;;;;;;5011377;28;20969;-54
2022/12/26 06:36:05;;;;;;;7.10;5.07;;;11.00;99.90;;;;;;5011430;28;20419;-53
2022/12/26 06:38:32;;;;;;;6.37;5.03;;;11.50;99.90;;;;;;5010888;28;20406;-54
2022/12/26 06:41:00;;;;;;;5.43;4.80;;;11.20;99.90;;;;;;5011426;28;20440;-54
2022/12/26 06:43:27;;;;;;;5.60;4.70;;;11.20;99.90;;;;;;5011453;28;20430;-52
2022/12/26 06:45:56;;;;;;;7.87;4.70;;;11.40;99.90;;;;;;5011427;28;20443;-52
2022/12/26 06:48:23;;;;;;;5.20;4.70;;;10.90;99.90;;;;;;5010919;28;20442;-53
2022/12/26 06:50:50;;;;;;;5.47;4.37;;;11.20;99.90;;;;;;5011255;28;20453;-53
2022/12/26 06:53:17;;;;;;;6.17;4.10;;;10.60;99.90;;;;;;5011301;28;20865;-53
2022/12/26 06:55:44;;;;;;;6.80;5.03;;;11.00;99.90;;;;;;5011189;28;20803;-53
2022/12/26 06:58:11;;;;;;;6.00;5.50;;;11.20;99.90;;;;;;5011293;28;20437;-52
2022/12/26 07:00:38;;;;;;;5.80;5.30;;;11.50;99.90;;;;;;5010248;28;20445;-52
2022/12/26 07:03:04;;;;;;;6.70;6.00;;;11.10;99.90;;;;;;4993733;28;20482;-52
2022/12/26 07:05:31;;;;;;;5.67;5.17;;;11.00;99.90;;;;;;5011316;28;20926;-53
2022/12/26 07:07:58;;;;;;;5.80;4.90;;;11.00;99.90;;;;;;5011307;28;20906;-52
2022/12/26 07:10:24;;;;;;;5.63;5.13;;;11.00;99.90;;;;;;5010604;28;20926;-53
2022/12/26 07:12:51;;;;;;;6.40;5.27;;;11.30;99.90;;;;;;5011155;28;20473;-53
2022/12/26 07:15:19;;;;;;;5.67;4.60;;;11.20;99.90;;;;;;5011251;28;20446;-53
2022/12/26 07:17:45;;;;;;;7.50;5.00;;;11.40;99.90;;;;;;5011117;28;20438;-53
2022/12/26 07:20:12;;;;;;;6.60;5.30;;;10.60;99.90;;;;;;5010405;28;20405;-53
2022/12/26 07:22:39;;;;;;;5.20;4.30;;;11.10;99.90;;;;;;5011094;28;20453;-52
2022/12/26 07:25:06;;;;;;;6.23;4.73;;;11.70;99.90;;;;;;5010984;28;20779;-53
2022/12/26 07:27:32;;;;;;;5.00;4.50;;;11.30;99.90;;;;;;5010920;28;20556;-53
2022/12/26 07:29:59;;;;;;;7.50;4.73;;;11.20;99.90;;;;;;5010381;28;20419;-53
2022/12/26 07:32:28;;;;;;;5.50;3.90;;;11.00;99.90;;;;;;5011238;28;20452;-53
2022/12/26 07:34:54;;;;;;;5.57;4.97;;;11.20;99.90;;;;;;5014110;28;20482;-53
2022/12/26 07:37:21;;;;;;;5.30;4.43;;;11.30;99.90;;;;;;5014489;28;20934;-53
2022/12/26 07:39:47;;;;;;;5.03;4.53;;;11.00;99.90;;;;;;5013748;28;20801;-53
2022/12/26 07:42:14;;;;;;;4.70;4.30;;;11.40;99.90;;;;;;5014323;28;20455;-52
2022/12/26 07:44:42;;;;;;;5.60;4.90;;;11.00;99.90;;;;;;5014441;28;20431;-53
2022/12/26 07:47:08;;;;;;;4.90;4.40;;;11.40;99.90;;;;;;5014404;28;20434;-53
2022/12/26 07:49:36;;;;;;;4.83;4.37;;;10.80;99.90;;;;;;5013622;28;20438;-52
2022/12/26 07:52:03;;;;;;;6.10;4.80;;;11.20;99.90;;;;;;5014146;28;20524;-53
2022/12/26 07:54:31;;;;;;;4.70;3.80;;;11.20;99.90;;;;;;5014026;28;20477;-53
2022/12/26 07:56:57;;;;;;;5.03;4.53;;;11.50;99.90;;;;;;5014078;28;20442;-52
2022/12/26 07:59:24;;;;;;;6.43;4.97;;;11.10;99.90;;;;;;5013378;28;20445;-53
2022/12/26 08:01:52;;;;;;;6.33;5.20;;;11.40;99.90;;;;;;5013811;28;20461;-53
2022/12/26 08:04:19;;;;;;;6.30;5.70;;;11.10;99.90;;;;;;5013955;28;20930;-53
2022/12/26 08:06:47;;;;;;;5.27;4.77;;;10.80;99.90;;;;;;5013781;28;20458;-53
2022/12/26 08:09:15;;;;;;;6.13;4.80;;;11.20;99.90;;;;;;4995497;28;20537;-53
2022/12/26 08:11:43;;;;;;;5.30;4.80;;;11.40;99.90;;;;;;5013750;28;20448;-53
2022/12/26 08:14:11;;;;;;;8.20;5.00;;;11.60;99.90;;;;;;5013749;28;20585;-53
2022/12/26 08:16:38;;;;;;;6.80;5.40;;;11.70;99.90;;;;;;5013767;28;20944;-54
2022/12/26 08:19:04;;;;;;;6.20;5.17;;;11.60;99.90;;;;;;5012921;28;20442;-54
2022/12/26 08:21:31;;;;;;;7.70;5.70;;;11.20;99.90;;;;;;5013527;28;20461;-53
2022/12/26 08:23:59;;;;;;;5.10;4.60;;;11.50;99.90;;;;;;5013356;28;20870;-53
2022/12/26 08:26:25;;;;;;;6.50;4.83;;;11.30;99.90;;;;;;5013403;28;20438;-53
2022/12/26 08:28:52;;;;;;;5.57;4.73;;;11.40;99.90;;;;;;5012902;28;20853;-53
2022/12/26 08:31:20;;;;;;;6.23;5.57;;;11.40;99.90;;;;;;5013523;28;20525;-53
2022/12/26 08:33:47;;;;;;;6.47;4.93;;;11.20;99.90;;;;;;5013366;28;20455;-53
2022/12/26 08:36:15;;;;;;;5.73;4.40;;;11.40;99.90;;;;;;5013844;28;20435;-53
2022/12/26 08:38:42;;;;;;;7.47;5.10;;;11.00;99.90;;;;;;5012645;28;20515;-52
2022/12/26 08:41:11;;;;;;;4.70;3.97;;;11.40;99.90;;;;;;5013273;28;20495;-53
2022/12/26 08:43:37;;;;;;;5.20;4.63;;;11.60;99.90;;;;;;5013434;28;20916;-53
2022/12/26 08:46:06;;;;;;;5.53;4.87;;;11.50;99.90;;;;;;5012550;28;20923;-53
2022/12/26 08:48:33;;;;;;;4.80;3.87;;;11.60;99.90;;;;;;5012580;28;20412;-53
2022/12/26 08:51:02;;;;;;;4.60;3.70;;;11.10;99.90;;;;;;5013038;28;20439;-52
2022/12/26 08:53:31;;;;;;;4.67;4.10;;;11.70;99.90;;;;;;5013384;28;20490;-53
2022/12/26 08:55:58;;;;;;;6.13;3.77;;;11.70;99.90;;;;;;5013458;28;20432;-53
2022/12/26 08:58:27;;;;;;;4.23;3.83;;;11.70;99.90;;;;;;5013067;28;20492;-53
2022/12/26 09:00:53;;;;;;;5.07;3.80;;;11.30;99.90;;;;;;5013116;28;20446;-53
2022/12/26 09:03:20;;;;;;;4.70;3.80;;;11.60;99.90;;;;;;5013036;28;20407;-53
2022/12/26 09:05:47;;;;;;;5.23;3.63;;;11.30;99.90;;;;;;5012883;28;20424;-53
2022/12/26 09:08:14;;;;;;;4.70;3.40;;;11.80;99.90;;;;;;5012654;28;20928;-52
2022/12/26 09:10:40;;;;;;;4.43;3.83;;;11.80;99.90;;;;;;5012018;28;20449;-53
2022/12/26 09:13:07;;;;;;;5.50;4.50;;;11.70;99.90;;;;;;5012488;28;20453;-53
2022/12/26 09:15:35;;;;;;;4.27;3.70;;;11.50;99.90;;;;;;5012944;28;20437;-53
2022/12/26 09:18:01;;;;;;;4.43;3.87;;;12.20;99.90;;;;;;5012286;28;20421;-53
2022/12/26 09:20:28;;;;;;;4.93;4.03;;;11.20;99.90;;;;;;5011684;28;20435;-53
2022/12/26 09:22:54;;;;;;;6.03;4.47;;;11.90;99.90;;;;;;5012215;28;20564;-52
2022/12/26 09:25:23;;;;;;;5.73;4.53;;;11.30;99.90;;;;;;5012287;28;20480;-53
2022/12/26 09:27:52;;;;;;;4.90;4.20;;;11.60;99.90;;;;;;4995021;28;20911;-52
2022/12/26 09:30:19;;;;;;;9.80;4.90;;;11.90;99.90;;;;;;4994220;28;20450;-53
2022/12/26 09:32:49;;;;;;;5.40;3.97;;;11.90;99.90;;;;;;5012244;28;20460;-53
2022/12/26 09:35:16;;;;;;;4.40;3.67;;;11.90;99.90;;;;;;5012214;28;20514;-52
2022/12/26 09:37:43;;;;;;;4.97;4.47;;;11.80;99.90;;;;;;5012323;28;20441;-52
2022/12/26 09:40:20;;;;;;;5.47;4.30;;;11.40;99.90;;;;;;5011435;28;20779;-54
2022/12/26 09:42:57;;;;;;;5.30;3.90;;;11.90;99.90;;;;;;5012014;28;20458;-53
2022/12/26 09:45:32;;;;;;;6.90;4.43;;;12.20;99.90;;;;;;5012227;28;20503;-53
2022/12/26 09:48:06;;;;;;;5.80;4.13;;;12.10;99.90;;;;;;5012127;28;20444;-53
2022/12/26 09:50:37;;;;;;;5.80;4.30;;;12.00;99.90;;;;;;5011562;28;20444;-53
2022/12/26 09:53:06;;;;;;;6.73;5.13;;;12.00;99.90;;;;;;5012102;28;20455;-54
2022/12/26 09:55:39;;;;;;;6.60;5.33;;;12.10;99.90;;;;;;5011972;28;20486;-53
2022/12/26 09:58:21;;;;;;;5.70;4.57;;;12.20;99.90;;;;;;5012113;28;20772;-53
2022/12/26 10:00:52;;;;;;;6.60;5.30;;;12.00;99.90;;;;;;5011656;28;20426;-53
2022/12/26 10:03:23;;;;;;;5.33;4.40;;;12.00;99.90;;;;;;5012012;28;20917;-53
2022/12/26 10:06:09;;;;;;;6.43;4.73;;;12.10;99.90;;;;;;5011817;28;20723;-53
2022/12/26 10:09:05;;;;;;;8.83;4.40;;;12.20;99.90;;;;;;5011246;28;20947;-53
2022/12/26 10:11:46;;;;;;;6.67;4.57;;;12.20;99.90;;;;;;5011876;28;20437;-53
2022/12/26 10:14:23;;;;;;;6.87;4.33;;;12.30;99.90;;;;;;5011860;28;20476;-53
2022/12/26 10:16:56;;;;;;;4.70;4.30;;;11.80;99.90;;;;;;5011940;28;20412;-53
2022/12/26 10:19:46;;;;;;;4.90;4.40;;;12.20;99.90;;;;;;5011193;28;20418;-54
2022/12/26 10:22:33;;;;;;;6.97;4.40;;;12.30;99.90;;;;;;5011872;28;20434;-54
2022/12/26 10:25:02;;;;;;;8.27;4.13;;;12.10;99.90;;;;;;5011696;28;20447;-54
2022/12/26 10:27:41;;;;;;;5.40;4.60;;;12.20;99.90;;;;;;5011629;28;20439;-54
2022/12/26 10:30:17;;;;;;;4.30;3.90;;;12.40;99.90;;;;;;5011135;28;20926;-54
2022/12/26 10:32:48;;;;;;;4.70;3.70;;;12.30;99.90;;;;;;5011340;28;20477;-53
2022/12/26 10:35:22;;;;;;;4.80;4.30;;;12.30;99.90;;;;;;4993987;28;20479;-54
2022/12/26 10:37:51;;;;;;;5.00;4.50;;;12.20;99.90;;;;;;5011674;28;20486;-53
2022/12/26 10:40:21;;;;;;;5.23;3.30;;;12.30;99.90;;;;;;5010816;28;20417;-53
2022/12/26 10:42:52;;;;;;;4.33;3.70;;;12.20;99.90;;;;;;5011343;28;20459;-53
2022/12/26 10:45:29;;;;;;;4.20;3.50;;;12.00;99.90;;;;;;5011513;28;20443;-53
2022/12/26 10:47:56;;;;;;;4.70;3.97;;;12.30;99.90;;;;;;5011623;28;20435;-53
2022/12/26 10:50:26;;;;;;;4.50;4.10;;;12.20;99.90;;;;;;5010933;28;20842;-53
2022/12/26 10:52:53;;;;;;;6.03;3.90;;;11.80;99.90;;;;;;5011527;28;20461;-53
2022/12/26 10:55:23;;;;;;;5.10;3.47;;;11.80;99.90;;;;;;5011405;28;20800;-53
2022/12/26 10:57:52;;;;;;;5.30;4.10;;;12.30;99.90;;;;;;5011496;28;20784;-55
2022/12/26 11:00:21;;;;;;;4.63;3.90;;;12.30;99.90;;;;;;5010731;28;20442;-55
2022/12/26 11:03:03;;;;;;;4.17;3.57;;;12.10;99.90;;;;;;5011290;28;20474;-54
2022/12/26 11:05:32;;;;;;;4.43;3.53;;;12.20;99.90;;;;;;5011265;28;20794;-55
2022/12/26 11:08:08;;;;;;;4.73;4.10;;;11.50;99.90;;;;;;5011704;28;20427;-54
2022/12/26 11:10:35;;;;;;;4.80;4.40;;;12.20;99.90;;;;;;5014231;28;20825;-55
2022/12/26 11:13:04;;;;;;;5.80;5.30;;;12.10;99.90;;;;;;5015088;28;20429;-54
2022/12/26 11:15:34;;;;;;;4.37;3.40;;;12.00;99.90;;;;;;5014820;28;21023;-55
2022/12/26 11:18:17;;;;;;;3.53;3.17;;;11.70;99.90;;;;;;4997335;28;20544;-55
2022/12/26 11:20:46;;;;;;;4.90;3.73;;;11.70;99.90;;;;;;4996433;28;20460;-55
2022/12/26 11:23:22;;;;;;;4.30;2.93;;;11.90;99.90;;;;;;5014813;28;20438;-54
2022/12/26 11:25:51;;;;;;;4.30;3.67;;;12.00;99.90;;;;;;5014784;28;20406;-55
2022/12/26 11:28:27;;;;;;;5.73;3.50;;;11.90;99.90;;;;;;5014888;28;20779;-55
2022/12/26 11:30:55;;;;;;;4.17;3.20;;;12.20;99.90;;;;;;5014683;28;20780;-54
2022/12/26 11:33:25;;;;;;;3.80;3.40;;;12.30;99.90;;;;;;5014424;28;20440;-53
2022/12/26 11:36:04;;;;;;;5.50;4.50;;;11.80;99.90;;;;;;5014482;28;20466;-53
2022/12/26 11:38:35;;;;;;;6.47;4.00;;;12.00;99.90;;;;;;5014076;28;20520;-54
2022/12/26 11:43:49;;;;;;;7.93;3.50;;;11.90;99.90;;;;;;5014483;28;20497;-54
2022/12/26 11:46:16;;;;;;;4.03;3.40;;;11.70;99.90;;;;;;5014290;28;20436;-54
2022/12/26 11:48:49;;;;;;;4.37;3.50;;;11.90;99.90;;;;;;5013494;28;20439;-53
2022/12/26 11:51:30;;;;;;;5.43;3.63;;;12.00;99.90;;;;;;5013950;28;20469;-55
2022/12/26 11:54:18;;;;;;;6.50;4.10;;;12.20;99.90;;;;;;5014145;28;20439;-55
2022/12/26 11:56:45;;;;;;;5.00;4.17;;;12.00;99.90;;;;;;5014055;28;20453;-55
2022/12/26 11:59:18;;;;;;;4.10;3.70;;;12.00;99.90;;;;;;5013436;28;20437;-55
2022/12/26 12:01:45;;;;;;;4.73;3.30;;;12.00;99.90;;;;;;5043263;22;20498;-54
2022/12/26 12:04:12;;;;;;;5.50;3.57;;;12.40;99.90;;;;;;5034675;28;20417;-57
2022/12/26 12:06:53;;;;;;;4.67;3.50;;;11.60;99.90;;;;;;5033794;28;20443;-56
2022/12/26 12:09:30;;;;;;;5.67;3.70;;;12.40;99.90;;;;;;5033498;28;20461;-56
2022/12/26 12:12:05;;;;;;;5.17;3.60;;;12.20;99.90;;;;;;5034079;28;20447;-55
2022/12/26 12:14:45;;;;;;;4.27;3.57;;;12.20;99.90;;;;;;5034132;28;21000;-55
2022/12/26 12:17:34;;;;;;;4.57;3.43;;;12.50;99.90;;;;;;5034229;28;20528;-55
2022/12/26 12:20:17;;;;;;;3.50;3.13;;;12.10;99.90;;;;;;5030835;28;20462;-55
2022/12/26 12:23:06;;;;;;;4.20;3.80;;;12.00;99.90;;;;;;5033827;28;20445;-54
2022/12/26 12:25:41;;;;;;;4.87;3.20;;;12.10;99.90;;;;;;5033973;28;20433;-55
2022/12/26 12:28:28;;;;;;;5.00;4.50;;;12.20;99.90;;;;;;5034043;28;20447;-56
2022/12/26 12:31:03;;;;;;;5.70;4.37;;;12.20;99.90;;;;;;5033751;28;20522;-56
2022/12/26 12:33:45;;;;;;;4.50;4.10;;;12.00;99.90;;;;;;5033754;28;20438;-55
2022/12/26 12:36:16;;;;;;;4.70;3.50;;;12.30;99.90;;;;;;5033674;28;20517;-54
2022/12/26 12:39:00;;;;;;;4.57;4.03;;;12.00;99.90;;;;;;5033103;28;20438;-54
2022/12/26 12:41:39;;;;;;;5.20;4.33;;;12.40;99.90;;;;;;5032107;28;20445;-55
2022/12/26 12:44:13;;;;;;;4.60;3.80;;;11.90;99.90;;;;;;5033606;28;20442;-54
2022/12/26 12:46:48;;;;;;;6.20;4.80;;;11.90;99.90;;;;;;5033523;28;20448;-56
2022/12/26 12:49:34;;;;;;;11.93;5.53;;;11.80;99.90;;;;;;5032784;28;20430;-56
2022/12/26 12:52:13;;;;;;;7.30;4.63;;;11.90;99.90;;;;;;5033385;28;20450;-55
2022/12/26 12:55:01;;;;;;;5.87;4.67;;;11.90;99.90;;;;;;5033283;28;21001;-55
2022/12/26 12:57:35;;;;;;;5.50;4.60;;;11.90;99.90;;;;;;5033442;28;20446;-55
2022/12/26 13:00:13;;;;;;;6.30;5.17;;;11.50;99.90;;;;;;5032709;28;20444;-55
2022/12/26 13:02:45;;;;;;;5.23;4.30;;;11.70;99.90;;;;;;5033044;28;20469;-55
2022/12/26 13:05:20;;;;;;;5.37;4.67;;;12.20;99.90;;;;;;5033152;28;20414;-55
2022/12/26 13:07:52;;;;;;;7.23;4.13;;;12.40;99.90;;;;;;5032791;28;20430;-55
2022/12/26 13:10:26;;;;;;;4.73;4.27;;;12.10;99.90;;;;;;5032428;28;20434;-55
2022/12/26 13:12:54;;;;;;;4.57;4.17;;;11.90;99.90;;;;;;5033290;28;20450;-55
2022/12/26 13:15:31;;;;;;;4.30;3.50;;;12.00;99.90;;;;;;5032947;28;20478;-55
2022/12/26 13:18:02;;;;;;;5.40;4.30;;;12.40;99.90;;;;;;5033032;28;20442;-55
2022/12/26 13:20:36;;;;;;;8.10;4.23;;;12.00;99.90;;;;;;5032069;28;20806;-55
2022/12/26 13:26:06;;;;;;;5.83;4.67;;;12.20;99.90;;;;;;5032706;28;20423;-56
2022/12/26 13:28:39;;;;;;;5.30;4.33;;;11.90;99.90;;;;;;5031951;28;20801;-55
2022/12/26 13:31:06;;;;;;;5.40;4.03;;;11.90;99.90;;;;;;5032297;28;20447;-56
2022/12/26 13:33:34;;;;;;;5.13;4.63;;;11.90;99.90;;;;;;5032627;28;20438;-55
2022/12/26 13:36:02;;;;;;;5.20;4.33;;;11.90;99.90;;;;;;5031255;28;20452;-55
2022/12/26 13:39:02;;;;;;;5.90;5.30;;;12.10;99.90;;;;;;5031719;28;20537;-55
2022/12/26 13:44:26;;;;;;;7.13;5.20;;;11.30;99.90;;;;;;5032486;28;20427;-55
2022/12/26 13:46:58;;;;;;;6.43;5.27;;;11.90;99.90;;;;;;5032322;28;20917;-55
2022/12/26 13:49:35;;;;;;;9.43;5.07;;;11.60;99.90;;;;;;5031718;28;20454;-55
2022/12/26 13:52:30;;;;;;;6.07;5.47;;;11.70;99.90;;;;;;5032365;28;20454;-56
2022/12/26 13:55:31;;;;;;;5.00;4.50;;;11.50;99.90;;;;;;5032055;28;20477;-55
2022/12/26 13:58:23;;;;;;;5.20;4.43;;;11.90;99.90;;;;;;5032175;28;20442;-57
2022/12/26 14:00:52;;;;;;;10.57;5.50;;;11.40;99.90;;;;;;5031973;28;20782;-56
2022/12/26 14:03:46;;;;;;;8.00;5.77;;;11.40;99.90;;;;;;5031521;28;20467;-55
2022/12/26 14:06:43;;;;;;;6.03;4.77;;;11.40;99.90;;;;;;5032078;28;20442;-55
2022/12/26 14:09:26;;;;;;;6.53;5.20;;;11.20;99.90;;;;;;5031326;28;20442;-55
2022/12/26 14:12:07;;;;;;;5.30;4.67;;;11.50;99.90;;;;;;5032437;28;20417;-55
2022/12/26 14:14:51;;;;;;;6.90;5.07;;;11.10;99.90;;;;;;5032175;28;20442;-55
2022/12/26 14:17:25;;;;;;;7.23;4.83;;;11.30;99.90;;;;;;5032040;28;20442;-55
2022/12/26 14:20:02;;;;;;;6.73;5.30;;;11.60;99.90;;;;;;5031474;28;20438;-56
2022/12/26 14:22:46;;;;;;;7.60;5.17;;;11.40;99.90;;;;;;5031991;28;20451;-55
2022/12/26 14:25:20;;;;;;;8.87;4.90;;;11.50;99.90;;;;;;5031808;28;20446;-56
2022/12/26 14:27:51;;;;;;;8.60;6.03;;;11.80;99.90;;;;;;5031958;28;20442;-55
2022/12/26 14:30:23;;;;;;;8.03;5.30;;;11.00;99.90;;;;;;5031223;28;20441;-55
2022/12/26 14:33:06;;;;;;;5.47;4.97;;;11.40;99.90;;;;;;5031576;28;20454;-56
2022/12/26 14:35:39;;;;;;;6.67;5.33;;;11.30;99.90;;;;;;5031538;28;20477;-56
2022/12/26 14:38:21;;;;;;;5.73;5.13;;;11.50;99.90;;;;;;5031955;28;20450;-55
2022/12/26 14:41:00;;;;;;;6.73;5.00;;;11.30;99.90;;;;;;5031480;28;20442;-54
2022/12/26 14:43:32;;;;;;;8.23;5.80;;;11.30;99.90;;;;;;5033165;28;20458;-55
2022/12/26 14:46:01;;;;;;;6.23;5.40;;;11.20;99.90;;;;;;5035940;28;20434;-54
2022/12/26 14:48:49;;;;;;;6.57;5.80;;;11.00;99.90;;;;;;5033952;28;20961;-55
2022/12/26 14:51:36;;;;;;;6.17;5.57;;;11.20;99.90;;;;;;5035754;28;20442;-56
2022/12/26 14:54:35;;;;;;;5.43;4.63;;;11.10;99.90;;;;;;5035738;28;20453;-56
2022/12/26 14:57:25;;;;;;;6.57;5.30;;;10.80;99.90;;;;;;5035625;28;20872;-56
2022/12/26 15:00:28;;;;;;;7.40;5.27;;;11.00;99.90;;;;;;5034730;28;20441;-55
2022/12/26 15:05:50;;;;;;;6.20;4.30;;;11.00;99.90;;;;;;5089505;28;20522;-57
2022/12/26 15:08:37;;;;;;;5.93;4.87;;;11.00;99.90;;;;;;5089173;28;20461;-55
2022/12/26 15:11:38;;;;;;;5.10;4.20;;;11.10;99.90;;;;;;5089431;28;20431;-57
2022/12/26 15:14:50;;;;;;;6.53;5.03;;;11.10;99.90;;;;;;5089483;28;20431;-56
2022/12/26 15:17:23;;;;;;;5.60;5.10;;;11.10;99.90;;;;;;5090208;28;20442;-55
2022/12/26 15:20:34;;;;;;;5.50;5.00;;;10.90;99.90;;;;;;5089013;28;20414;-56
2022/12/26 15:23:31;;;;;;;5.97;5.37;;;11.10;99.90;;;;;;5089703;28;20471;-56
2022/12/26 15:26:18;;;;;;;5.83;5.23;;;11.10;99.90;;;;;;5089863;28;20443;-56